Time;durP1;ratioP1;P1;durP2;ratioP2;P2;SDS_P1;SDS_P2;PMS_P1;PMS_P2;Temp;Humidity;BMP_temperature;BMP_pressure;BME280_temperature;BME280_humidity;BME280_pressure;Samples;Min_cycle;Max_cycle;Signal;HPM_P1;HPM_P2
2022/05/20 00:01:56;;;;;;;2.67;2.28;;;21.70;91.70;;;;;;5068436;28;45200;-72
2022/05/20 00:04:23;;;;;;;3.83;2.80;;;21.70;91.70;;;;;;5071836;28;47921;-72
2022/05/20 00:06:50;;;;;;;3.17;2.42;;;21.70;91.70;;;;;;5071671;28;45391;-72
2022/05/20 00:09:17;;;;;;;4.60;2.47;;;21.70;91.70;;;;;;5072841;28;45297;-72
2022/05/20 00:11:44;;;;;;;5.53;2.97;;;21.70;91.80;;;;;;5076985;28;45342;-72
2022/05/20 00:14:10;;;;;;;2.60;2.40;;;21.70;91.80;;;;;;5071052;28;45205;-70
2022/05/20 00:16:39;;;;;;;3.83;2.70;;;21.60;91.70;;;;;;5074041;28;45280;-71
2022/05/20 00:19:07;;;;;;;2.92;2.60;;;21.60;91.70;;;;;;5075148;28;45259;-70
2022/05/20 00:21:35;;;;;;;4.10;3.03;;;21.70;91.70;;;;;;5067785;28;45542;-70
2022/05/20 00:24:02;;;;;;;3.60;2.72;;;21.60;91.70;;;;;;5076298;28;45283;-70
2022/05/20 00:26:29;;;;;;;3.17;2.67;;;21.60;91.70;;;;;;5074303;28;45206;-71
2022/05/20 00:28:56;;;;;;;4.53;2.95;;;21.60;91.60;;;;;;5071092;28;45693;-70
2022/05/20 00:31:25;;;;;;;3.35;2.45;;;21.60;91.60;;;;;;5078246;28;45324;-71
2022/05/20 00:33:54;;;;;;;3.35;2.45;;;21.60;91.60;;;;;;5066287;28;46635;-71
2022/05/20 00:36:21;;;;;;;4.07;2.83;;;21.60;91.60;;;;;;5075620;28;45199;-71
2022/05/20 00:38:49;;;;;;;3.22;2.40;;;21.60;91.60;;;;;;5068042;28;45601;-71
2022/05/20 00:41:16;;;;;;;4.70;2.83;;;21.60;91.50;;;;;;5073641;28;45572;-71
2022/05/20 00:43:45;;;;;;;3.15;2.30;;;21.70;91.90;;;;;;5073887;28;47331;-70
2022/05/20 00:46:14;;;;;;;4.68;2.45;;;21.70;91.50;;;;;;5071378;28;45539;-71
2022/05/20 00:48:42;;;;;;;4.38;2.97;;;21.70;91.40;;;;;;5077881;27;45293;-71
2022/05/20 00:51:14;;;;;;;3.65;2.60;;;21.70;91.40;;;;;;5072604;28;45484;-71
2022/05/20 00:53:45;;;;;;;5.10;2.75;;;21.70;91.40;;;;;;5069565;28;46493;-71
2022/05/20 00:56:16;;;;;;;5.15;3.08;;;21.70;91.40;;;;;;5077674;28;45457;-71
2022/05/20 00:58:43;;;;;;;3.20;2.55;;;21.70;91.30;;;;;;5070161;28;45528;-71
2022/05/20 01:01:11;;;;;;;2.88;2.28;;;21.70;91.30;;;;;;5077086;28;45576;-70
2022/05/20 01:03:38;;;;;;;3.30;2.55;;;21.70;91.30;;;;;;5077899;28;47389;-70
2022/05/20 01:06:06;;;;;;;3.47;2.53;;;21.70;91.30;;;;;;5072544;28;45389;-71
2022/05/20 01:08:34;;;;;;;4.45;2.90;;;21.70;91.30;;;;;;5075975;28;45140;-71
2022/05/20 01:11:01;;;;;;;3.75;2.92;;;21.70;91.30;;;;;;5080114;28;45354;-71
2022/05/20 01:13:30;;;;;;;3.45;2.63;;;21.60;91.20;;;;;;5068658;28;46591;-71
2022/05/20 01:15:57;;;;;;;4.78;3.20;;;21.60;91.30;;;;;;5072381;28;45430;-72
2022/05/20 01:18:25;;;;;;;3.13;2.47;;;21.70;91.40;;;;;;5074213;28;45511;-71
2022/05/20 01:20:56;;;;;;;3.92;2.80;;;21.60;91.30;;;;;;5071620;27;45486;-71
2022/05/20 01:23:26;;;;;;;3.70;2.60;;;21.60;91.30;;;;;;5066624;28;46183;-70
2022/05/20 01:25:56;;;;;;;4.18;3.22;;;21.60;91.30;;;;;;5075079;28;45271;-72
2022/05/20 01:28:25;;;;;;;4.28;3.20;;;21.60;91.30;;;;;;5071153;28;45154;-70
2022/05/20 01:30:55;;;;;;;4.57;3.25;;;21.60;91.30;;;;;;5071712;28;45459;-71
2022/05/20 01:33:24;;;;;;;4.72;3.50;;;21.60;91.30;;;;;;5063598;28;45571;-71
2022/05/20 01:35:51;;;;;;;3.92;3.25;;;21.60;91.30;;;;;;5079381;27;45259;-71
2022/05/20 01:38:18;;;;;;;4.93;3.38;;;21.60;91.30;;;;;;5073528;28;45239;-71
2022/05/20 01:40:50;;;;;;;4.25;3.13;;;21.60;91.30;;;;;;5078350;28;45247;-70
2022/05/20 01:43:35;;;;;;;4.25;3.47;;;21.60;91.20;;;;;;5077138;28;45233;-71
2022/05/20 01:46:13;;;;;;;5.63;3.83;;;21.60;91.20;;;;;;5061257;28;45257;-70
2022/05/20 01:48:49;;;;;;;5.03;3.60;;;21.60;91.10;;;;;;5065030;28;45229;-71
2022/05/20 01:51:19;;;;;;;3.85;3.13;;;21.60;91.10;;;;;;5064016;28;45206;-72
2022/05/20 01:53:51;;;;;;;4.53;3.50;;;21.60;91.00;;;;;;5074949;28;45309;-71
2022/05/20 01:56:24;;;;;;;5.45;3.40;;;21.70;91.10;;;;;;5059746;28;45544;-72
2022/05/20 01:58:57;;;;;;;4.30;3.22;;;21.60;91.00;;;;;;5067083;28;45341;-70
2022/05/20 02:01:29;;;;;;;4.50;3.40;;;21.70;91.00;;;;;;5069192;28;45533;-70
2022/05/20 02:04:03;;;;;;;5.43;3.90;;;21.60;90.90;;;;;;5069136;28;47966;-71
2022/05/20 02:06:37;;;;;;;4.65;3.70;;;21.60;90.90;;;;;;5064806;28;45459;-71
2022/05/20 02:09:09;;;;;;;3.67;3.17;;;21.60;90.90;;;;;;5069657;28;45309;-71
2022/05/20 02:11:42;;;;;;;6.10;4.15;;;21.60;90.90;;;;;;5074976;27;45479;-70
2022/05/20 02:14:13;;;;;;;5.47;3.92;;;21.60;90.90;;;;;;5075610;28;46283;-70
2022/05/20 02:16:46;;;;;;;5.68;4.00;;;21.60;90.90;;;;;;5074422;28;45195;-71
2022/05/20 02:19:16;;;;;;;5.07;4.03;;;21.60;90.90;;;;;;5068113;28;45457;-71
2022/05/20 02:21:48;;;;;;;6.55;4.15;;;21.60;90.90;;;;;;5077639;28;45417;-71
2022/05/20 02:24:20;;;;;;;5.65;3.83;;;21.60;90.90;;;;;;5069555;28;47256;-70
2022/05/20 02:26:52;;;;;;;5.68;3.95;;;21.60;90.90;;;;;;5071304;28;45602;-71
2022/05/20 02:29:24;;;;;;;5.03;3.80;;;21.60;90.90;;;;;;5064958;28;45209;-71
2022/05/20 02:31:57;;;;;;;6.20;4.05;;;21.60;91.00;;;;;;5049225;28;45288;-71
2022/05/20 02:34:23;;;;;;;5.63;4.28;;;21.60;91.00;;;;;;5060225;28;46170;-71
2022/05/20 02:36:50;;;;;;;4.85;3.67;;;21.60;90.90;;;;;;5069830;28;45682;-70
2022/05/20 02:39:21;;;;;;;4.88;4.05;;;21.60;91.00;;;;;;5075475;28;45303;-71
2022/05/20 02:41:50;;;;;;;7.72;4.30;;;21.60;90.90;;;;;;5075906;28;45165;-71
2022/05/20 02:44:17;;;;;;;5.50;4.00;;;21.60;90.90;;;;;;5069305;28;45986;-71
2022/05/20 02:46:47;;;;;;;4.75;3.83;;;21.60;90.90;;;;;;5066839;28;45209;-71
2022/05/20 02:49:14;;;;;;;5.13;4.07;;;21.60;90.80;;;;;;5073264;28;45448;-71
2022/05/20 02:51:40;;;;;;;5.63;4.18;;;21.60;90.80;;;;;;5067735;28;45258;-71
2022/05/20 02:54:07;;;;;;;6.20;4.18;;;21.60;90.70;;;;;;5077037;28;46449;-71
2022/05/20 02:56:34;;;;;;;4.50;3.60;;;21.60;90.70;;;;;;5064451;28;45232;-71
2022/05/20 03:04:31;;;;;;;6.47;4.65;;;21.60;90.50;;;;;;5079552;28;45274;-71
2022/05/20 03:06:57;;;;;;;6.57;4.80;;;21.60;90.50;;;;;;5068214;28;45236;-71
2022/05/20 03:09:26;;;;;;;5.60;4.07;;;21.60;90.40;;;;;;5077849;28;45295;-71
2022/05/20 03:11:54;;;;;;;5.43;4.30;;;21.60;90.40;;;;;;5069263;28;45338;-71
2022/05/20 03:14:24;;;;;;;5.95;4.35;;;21.60;90.40;;;;;;5075670;28;47460;-71
2022/05/20 03:16:51;;;;;;;6.13;4.70;;;21.70;90.80;;;;;;5076503;28;45286;-71
2022/05/20 03:19:18;;;;;;;5.18;4.28;;;21.60;90.30;;;;;;5069801;28;45283;-71
2022/05/20 03:21:45;;;;;;;6.00;4.40;;;21.60;90.30;;;;;;5077087;28;45597;-71
2022/05/20 03:24:12;;;;;;;8.43;4.80;;;21.60;90.30;;;;;;5077715;28;47259;-71
2022/05/20 03:26:40;;;;;;;7.03;4.55;;;21.60;90.30;;;;;;5069160;28;45186;-71
2022/05/20 03:29:07;;;;;;;5.85;4.70;;;21.60;90.20;;;;;;5075052;28;45166;-71
2022/05/20 03:31:38;;;;;;;6.18;4.50;;;21.60;90.20;;;;;;5069526;28;45529;-71
2022/05/20 03:34:06;;;;;;;7.82;5.15;;;21.60;90.20;;;;;;5075922;28;45167;-71
2022/05/20 03:36:34;;;;;;;6.60;4.80;;;21.60;90.20;;;;;;5075351;28;45215;-71
2022/05/20 03:39:01;;;;;;;7.00;5.20;;;21.60;90.20;;;;;;5080371;28;45314;-71
2022/05/20 03:41:28;;;;;;;5.43;4.10;;;21.70;90.20;;;;;;5078274;28;45157;-71
2022/05/20 03:43:55;;;;;;;5.60;4.55;;;21.60;90.20;;;;;;5078847;28;45934;-71
2022/05/20 03:46:23;;;;;;;5.93;4.32;;;21.60;90.20;;;;;;5082045;28;45362;-71
2022/05/20 03:48:51;;;;;;;6.78;4.70;;;21.60;90.20;;;;;;5071977;28;45451;-71
2022/05/20 03:51:18;;;;;;;6.65;4.78;;;21.60;90.20;;;;;;5070267;28;45311;-70
2022/05/20 03:53:45;;;;;;;6.10;4.55;;;21.60;90.20;;;;;;5063226;28;46376;-72
2022/05/20 03:56:11;;;;;;;6.05;4.28;;;21.50;90.20;;;;;;5067489;28;45244;-71
2022/05/20 03:58:38;;;;;;;6.00;4.60;;;21.60;90.20;;;;;;5068329;28;45390;-70
2022/05/20 04:03:53;;;;;;;6.70;5.15;;;21.50;90.20;;;;;;5069582;28;45629;-70
2022/05/20 04:06:19;;;;;;;6.20;4.57;;;21.50;90.20;;;;;;5067434;28;46499;-70
2022/05/20 04:08:47;;;;;;;6.57;4.88;;;21.60;90.20;;;;;;5074827;28;45199;-70
2022/05/20 04:11:14;;;;;;;6.75;4.57;;;21.50;90.20;;;;;;5074239;28;45278;-71
2022/05/20 04:13:42;;;;;;;8.35;5.10;;;21.50;90.20;;;;;;5066795;28;45490;-71
2022/05/20 04:16:10;;;;;;;7.15;5.20;;;21.50;90.20;;;;;;5275562;22;45725;-70
2022/05/20 04:18:37;;;;;;;7.90;5.22;;;21.50;90.20;;;;;;5086930;27;45286;-70
2022/05/20 04:21:06;;;;;;;6.10;5.03;;;21.50;90.20;;;;;;5088616;27;45194;-72
2022/05/20 04:23:33;;;;;;;6.95;5.03;;;21.60;90.10;;;;;;5084520;27;46276;-70
2022/05/20 04:26:00;;;;;;;7.22;5.45;;;21.60;90.10;;;;;;5082251;27;45973;-71
2022/05/20 04:28:27;;;;;;;6.00;5.05;;;21.60;90.00;;;;;;5082964;27;45190;-71
2022/05/20 04:30:57;;;;;;;6.88;5.13;;;21.60;90.00;;;;;;5087464;27;45380;-70
2022/05/20 04:33:24;;;;;;;8.23;5.47;;;21.60;90.00;;;;;;5075044;27;45286;-71
2022/05/20 04:35:51;;;;;;;8.80;5.10;;;21.60;90.00;;;;;;5086770;27;45147;-71
2022/05/20 04:38:19;;;;;;;6.50;5.05;;;21.70;90.00;;;;;;5078929;27;45632;-71
2022/05/20 04:46:56;;;;;;;6.35;5.20;;;21.70;90.00;;;;;;5081984;27;45318;-71
2022/05/20 04:49:02;;;;;;;8.23;5.20;;;21.70;90.00;;;;;;5088066;27;45361;-71
2022/05/20 04:51:29;;;;;;;9.55;5.50;;;21.70;90.00;;;;;;5081719;27;45291;-71
2022/05/20 04:56:41;;;;;;;7.18;4.88;;;21.70;89.60;;;;;;5073510;27;45467;-71
2022/05/20 04:59:08;;;;;;;6.40;4.70;;;21.70;89.40;;;;;;5082493;27;45305;-72
2022/05/20 05:01:34;;;;;;;6.70;5.00;;;21.70;89.20;;;;;;5082126;27;45316;-71
2022/05/20 05:04:01;;;;;;;5.97;4.70;;;21.70;89.10;;;;;;5078632;28;45655;-73
2022/05/20 05:06:28;;;;;;;7.13;4.75;;;21.70;88.90;;;;;;5067969;28;45587;-72
2022/05/20 05:08:55;;;;;;;6.95;4.80;;;21.70;89.00;;;;;;5082390;27;45431;-71
2022/05/20 05:11:23;;;;;;;6.40;4.43;;;21.70;89.00;;;;;;5067412;28;45303;-73
2022/05/20 05:13:50;;;;;;;5.85;4.50;;;21.70;89.10;;;;;;5085827;27;46712;-72
2022/05/20 05:16:16;;;;;;;5.78;4.20;;;21.70;89.20;;;;;;5093497;27;45270;-71
2022/05/20 05:18:43;;;;;;;6.18;4.45;;;21.70;89.30;;;;;;5079132;27;45760;-71
2022/05/20 05:21:14;;;;;;;5.55;4.22;;;21.70;89.50;;;;;;5079033;27;45431;-72
2022/05/20 05:23:41;;;;;;;6.38;4.90;;;21.70;89.50;;;;;;5082835;27;46427;-72
2022/05/20 05:26:08;;;;;;;5.93;4.43;;;21.70;89.60;;;;;;5073335;27;45310;-73
2022/05/20 05:28:36;;;;;;;5.45;4.38;;;21.70;89.60;;;;;;5080546;27;45142;-71
2022/05/20 05:31:03;;;;;;;5.35;4.03;;;21.70;89.70;;;;;;5077649;27;45307;-71
2022/05/20 05:33:30;;;;;;;5.57;3.92;;;21.70;89.60;;;;;;5083875;27;47156;-71
2022/05/20 05:35:56;;;;;;;5.00;3.95;;;21.70;89.60;;;;;;5072159;27;45389;-72
2022/05/20 05:38:24;;;;;;;4.50;3.67;;;21.70;89.50;;;;;;5077534;27;46291;-71
2022/05/20 05:40:51;;;;;;;4.72;3.70;;;21.70;89.40;;;;;;5083154;27;45483;-72
2022/05/20 05:43:18;;;;;;;5.78;4.25;;;21.80;89.30;;;;;;5081720;27;47073;-71
2022/05/20 05:45:46;;;;;;;4.28;3.75;;;21.80;89.20;;;;;;5077909;27;45510;-71
2022/05/20 05:48:15;;;;;;;6.28;4.43;;;21.80;89.20;;;;;;5077331;27;45250;-70
2022/05/20 05:50:42;;;;;;;5.53;3.88;;;21.80;89.10;;;;;;5074474;27;46417;-71
2022/05/20 05:53:12;;;;;;;8.38;4.00;;;21.80;89.10;;;;;;5077305;27;47393;-72
2022/05/20 05:55:39;;;;;;;4.88;3.80;;;21.80;89.20;;;;;;5082123;27;45654;-70
2022/05/20 05:58:06;;;;;;;5.50;3.65;;;21.70;89.20;;;;;;5072676;27;45335;-70
2022/05/20 06:00:33;;;;;;;4.25;3.58;;;21.80;89.40;;;;;;5077402;27;45481;-71
2022/05/20 06:03:01;;;;;;;5.90;3.80;;;21.70;89.40;;;;;;5082151;27;46356;-71
2022/05/20 06:05:28;;;;;;;6.05;4.05;;;21.80;89.60;;;;;;5077033;27;45280;-71
2022/05/20 06:07:55;;;;;;;5.22;3.63;;;21.70;89.60;;;;;;5085351;27;45274;-71
2022/05/20 06:10:23;;;;;;;5.32;3.72;;;21.70;89.60;;;;;;5091908;27;45237;-71
2022/05/20 06:12:50;;;;;;;6.35;4.13;;;21.70;89.60;;;;;;5086340;27;46266;-71
2022/05/20 06:15:19;;;;;;;4.40;3.85;;;21.70;89.60;;;;;;5094797;27;45460;-71
2022/05/20 06:17:46;;;;;;;5.32;3.50;;;21.70;89.70;;;;;;5079235;27;45309;-72
2022/05/20 06:20:14;;;;;;;5.75;3.90;;;21.70;89.70;;;;;;5083645;27;45700;-72
2022/05/20 06:22:41;;;;;;;8.80;4.78;;;21.70;89.70;;;;;;5080234;27;46680;-72
2022/05/20 06:25:09;;;;;;;4.53;3.50;;;21.70;89.70;;;;;;5091008;27;45272;-70
2022/05/20 06:27:36;;;;;;;5.25;3.95;;;21.70;89.70;;;;;;5079357;27;45561;-70
2022/05/20 06:30:03;;;;;;;5.47;4.25;;;21.70;89.60;;;;;;5091490;27;45370;-72
2022/05/20 06:32:30;;;;;;;6.03;4.25;;;21.80;89.60;;;;;;5095104;27;45614;-72
2022/05/20 06:40:38;;;;;;;6.65;4.32;;;21.80;89.50;;;;;;5068873;27;45568;-71
2022/05/20 06:43:05;;;;;;;5.72;4.28;;;21.80;89.50;;;;;;5082804;27;46207;-72
2022/05/20 06:45:32;;;;;;;5.82;4.10;;;22.00;89.80;;;;;;5086270;27;45598;-72
2022/05/20 06:47:59;;;;;;;7.07;4.35;;;21.80;89.60;;;;;;5074616;27;45369;-71
2022/05/20 06:50:26;;;;;;;19.08;6.28;;;21.80;89.60;;;;;;5075527;27;45370;-70
2022/05/20 06:52:54;;;;;;;14.93;5.45;;;21.80;90.00;;;;;;5084396;27;46200;-70
2022/05/20 06:55:21;;;;;;;18.70;5.57;;;21.80;89.90;;;;;;5083745;27;45294;-71
2022/05/20 06:57:48;;;;;;;13.15;5.53;;;21.80;89.80;;;;;;5082816;27;45617;-71
2022/05/20 07:00:16;;;;;;;17.38;5.68;;;21.80;89.80;;;;;;5076736;27;45798;-71
2022/05/20 07:02:44;;;;;;;9.43;5.45;;;21.80;89.70;;;;;;5089388;27;45369;-71
2022/05/20 07:05:11;;;;;;;9.20;4.75;;;21.70;89.40;;;;;;5088416;27;45210;-71
2022/05/20 07:07:39;;;;;;;9.05;5.07;;;21.70;89.30;;;;;;5077743;27;45386;-71
2022/05/20 07:10:10;;;;;;;12.40;5.15;;;21.70;88.80;;;;;;5077930;27;45278;-72
2022/05/20 07:12:37;;;;;;;6.90;3.80;;;21.70;88.30;;;;;;5077898;27;45426;-71
2022/05/20 07:15:04;;;;;;;6.20;4.35;;;21.70;87.90;;;;;;5093385;27;45157;-71
2022/05/20 07:17:32;;;;;;;8.15;4.22;;;21.70;88.00;;;;;;5080489;27;45353;-71
2022/05/20 07:19:59;;;;;;;6.85;3.97;;;21.70;87.60;;;;;;5080364;27;45261;-71
2022/05/20 07:22:25;;;;;;;6.90;4.20;;;21.70;87.30;;;;;;5089374;27;48394;-71
2022/05/20 07:24:52;;;;;;;7.22;4.45;;;21.70;88.40;;;;;;5101147;27;45262;-71
2022/05/20 07:27:20;;;;;;;7.63;3.70;;;21.80;87.50;;;;;;5092487;27;45346;-71
2022/05/20 07:29:47;;;;;;;6.80;4.25;;;21.80;87.50;;;;;;5082646;27;45195;-71
2022/05/20 07:32:14;;;;;;;5.50;4.30;;;21.80;87.70;;;;;;5089603;27;47852;-71
2022/05/20 07:34:41;;;;;;;4.95;3.63;;;21.80;87.80;;;;;;5085163;27;45326;-71
2022/05/20 07:37:08;;;;;;;5.40;4.13;;;21.80;87.90;;;;;;5091126;27;45254;-71
2022/05/20 07:39:34;;;;;;;8.55;4.75;;;21.80;88.00;;;;;;5084211;27;45354;-71
2022/05/20 07:42:01;;;;;;;6.85;4.50;;;21.80;88.10;;;;;;5087426;27;46495;-70
2022/05/20 07:44:29;;;;;;;7.93;4.70;;;21.80;88.40;;;;;;5085404;27;45470;-71
2022/05/20 07:46:56;;;;;;;7.90;4.47;;;21.80;88.50;;;;;;5079465;27;45349;-70
2022/05/20 07:49:23;;;;;;;7.15;4.68;;;21.80;88.60;;;;;;5087281;27;45351;-71
2022/05/20 07:51:55;;;;;;;6.93;4.70;;;21.80;88.70;;;;;;5082785;27;47428;-71
2022/05/20 07:54:25;;;;;;;7.18;4.53;;;21.80;88.80;;;;;;5089766;27;45310;-71
2022/05/20 07:56:59;;;;;;;7.75;4.72;;;21.80;89.10;;;;;;5087045;27;45137;-71
2022/05/20 07:59:30;;;;;;;7.97;5.15;;;21.80;89.20;;;;;;5082974;27;45650;-71
2022/05/20 08:02:00;;;;;;;8.40;5.72;;;21.80;89.60;;;;;;5085365;27;45741;-71
2022/05/20 08:07:27;;;;;;;6.97;4.75;;;21.80;89.40;;;;;;5059028;27;46789;-71
2022/05/20 08:09:54;;;;;;;10.00;5.47;;;21.70;89.10;;;;;;5091277;27;45304;-71
2022/05/20 08:12:21;;;;;;;7.28;4.72;;;21.70;88.80;;;;;;5093560;27;46695;-71
2022/05/20 08:14:50;;;;;;;8.45;5.15;;;21.80;88.90;;;;;;5072388;27;45304;-71
2022/05/20 08:17:20;;;;;;;8.02;5.15;;;21.80;88.70;;;;;;5097042;27;45290;-72
2022/05/20 08:19:47;;;;;;;6.63;4.75;;;21.80;88.50;;;;;;5084265;27;45453;-72
2022/05/20 08:22:22;;;;;;;7.65;4.60;;;21.80;88.40;;;;;;5085633;27;45969;-75
2022/05/20 08:24:49;;;;;;;7.38;4.25;;;21.80;90.40;;;;;;5082332;27;45558;-74
2022/05/20 08:27:16;;;;;;;13.15;4.63;;;21.80;90.20;;;;;;5090179;27;45334;-76
2022/05/20 08:29:43;;;;;;;8.30;4.68;;;21.80;91.20;;;;;;5083686;27;45898;-77
2022/05/20 08:32:12;;;;;;;8.23;5.45;;;21.80;91.50;;;;;;5081906;27;46621;-78
2022/05/20 08:34:39;;;;;;;8.30;5.32;;;21.80;91.90;;;;;;5094990;27;45525;-76
2022/05/20 08:37:06;;;;;;;9.32;5.85;;;21.70;92.10;;;;;;5090589;27;45232;-75
2022/05/20 08:39:33;;;;;;;9.02;5.65;;;21.80;92.40;;;;;;5079695;27;45254;-75
2022/05/20 08:42:00;;;;;;;10.27;5.25;;;21.70;92.70;;;;;;5093651;27;46547;-77
2022/05/20 08:44:27;;;;;;;8.93;5.47;;;21.70;93.00;;;;;;5102282;27;46064;-76
2022/05/20 08:47:13;;;;;;;8.00;5.45;;;21.70;93.30;;;;;;5083121;27;45338;-77
2022/05/20 08:49:42;;;;;;;10.35;5.70;;;21.70;93.90;;;;;;5074613;27;45434;-77
2022/05/20 08:52:09;;;;;;;9.45;5.65;;;21.60;93.90;;;;;;5098563;27;46493;-76
2022/05/20 08:54:36;;;;;;;9.68;5.90;;;21.60;94.40;;;;;;5096687;27;45525;-77
2022/05/20 08:57:16;;;;;;;7.72;5.43;;;21.60;94.60;;;;;;5094341;27;45243;-76
2022/05/20 08:59:43;;;;;;;8.48;5.75;;;21.60;94.80;;;;;;5092273;27;45619;-76
2022/05/20 09:02:09;;;;;;;8.98;5.65;;;21.60;94.90;;;;;;5104985;27;47407;-76
2022/05/20 09:04:36;;;;;;;10.18;6.28;;;21.60;95.20;;;;;;5092213;27;45150;-76
2022/05/20 09:07:07;;;;;;;8.60;5.95;;;21.60;95.30;;;;;;5090194;27;45283;-76
2022/05/20 09:09:46;;;;;;;8.85;5.78;;;21.60;95.80;;;;;;5081983;27;45223;-76
2022/05/20 09:12:28;;;;;;;9.15;5.35;;;21.60;96.20;;;;;;5088006;27;47599;-77
2022/05/20 09:17:48;;;;;;;8.18;5.38;;;21.60;96.40;;;;;;5084119;27;45285;-76
2022/05/20 09:20:18;;;;;;;7.25;5.40;;;21.60;96.40;;;;;;5087880;27;45136;-77
2022/05/20 09:22:57;;;;;;;8.18;5.85;;;21.60;96.50;;;;;;5088703;27;47050;-78
2022/05/20 09:25:27;;;;;;;9.25;6.22;;;21.60;96.90;;;;;;5088633;27;45311;-77
2022/05/20 09:27:58;;;;;;;10.38;6.45;;;21.60;96.90;;;;;;5093797;27;45137;-76
2022/05/20 09:30:25;;;;;;;8.57;6.15;;;21.60;96.90;;;;;;5085858;27;45324;-76
2022/05/20 09:33:02;;;;;;;9.00;6.30;;;21.60;97.00;;;;;;5093317;27;46698;-77
2022/05/20 09:35:34;;;;;;;6.75;5.32;;;21.60;97.20;;;;;;5094982;27;45172;-77
2022/05/20 09:38:12;;;;;;;8.57;6.00;;;21.60;97.20;;;;;;5091567;27;45263;-77
2022/05/20 09:40:41;;;;;;;8.10;6.15;;;21.60;97.40;;;;;;5087988;27;45273;-76
2022/05/20 09:43:11;;;;;;;9.38;5.97;;;21.60;97.30;;;;;;5082128;27;45683;-77
2022/05/20 09:45:44;;;;;;;9.25;6.82;;;21.60;97.50;;;;;;5092429;27;45320;-77
2022/05/20 09:48:12;;;;;;;7.82;6.32;;;21.60;97.80;;;;;;5083577;27;45218;-77
2022/05/20 09:50:39;;;;;;;8.07;6.35;;;21.60;97.70;;;;;;5092662;27;45743;-77
2022/05/20 09:53:17;;;;;;;7.78;5.93;;;21.60;97.70;;;;;;5103713;27;47411;-77
2022/05/20 09:55:46;;;;;;;9.57;6.22;;;21.60;98.20;;;;;;5084260;27;45429;-77
2022/05/20 09:58:16;;;;;;;8.52;5.32;;;21.60;98.10;;;;;;5086124;27;45192;-77
2022/05/20 10:00:46;;;;;;;7.28;5.57;;;21.60;98.20;;;;;;5092144;27;45449;-77
2022/05/20 10:03:24;;;;;;;7.70;6.00;;;21.60;98.40;;;;;;5079700;27;47315;-77
2022/05/20 10:05:55;;;;;;;7.70;5.68;;;21.60;98.60;;;;;;5089258;27;46085;-77
2022/05/20 10:08:29;;;;;;;7.95;5.65;;;21.60;98.70;;;;;;5087253;27;45268;-76
2022/05/20 10:11:10;;;;;;;7.05;5.43;;;21.60;98.90;;;;;;5084643;27;45327;-76
2022/05/20 10:13:53;;;;;;;6.32;5.05;;;21.60;99.10;;;;;;5078614;27;45587;-76
2022/05/20 10:16:32;;;;;;;7.28;5.60;;;21.60;99.40;;;;;;5087367;27;45279;-76
2022/05/20 10:19:07;;;;;;;7.30;5.80;;;21.60;99.50;;;;;;5096026;27;45245;-75
2022/05/20 10:21:51;;;;;;;8.90;6.35;;;21.60;99.50;;;;;;5079327;27;45324;-76
2022/05/20 10:24:41;;;;;;;6.53;5.38;;;21.60;99.60;;;;;;5087721;27;47355;-76
2022/05/20 10:27:14;;;;;;;6.07;5.00;;;21.60;99.60;;;;;;5082993;27;45166;-76
2022/05/20 10:32:37;;;;;;;7.93;5.40;;;21.60;99.40;;;;;;5080604;27;45321;-76
2022/05/20 10:35:09;;;;;;;6.80;4.88;;;21.60;99.40;;;;;;5095807;27;47420;-76
2022/05/20 10:37:58;;;;;;;7.10;5.05;;;21.60;99.40;;;;;;5089175;27;45309;-76
2022/05/20 10:40:43;;;;;;;7.15;5.07;;;21.60;99.70;;;;;;5072305;27;45530;-76
2022/05/20 10:43:26;;;;;;;6.90;4.82;;;21.60;99.90;;;;;;5090523;27;45248;-76
2022/05/20 10:49:02;;;;;;;6.60;5.15;;;21.60;99.90;;;;;;5082524;27;45267;-76
2022/05/20 10:51:57;;;;;;;6.95;4.68;;;21.60;99.90;;;;;;5083222;27;45305;-75
2022/05/20 10:54:36;;;;;;;5.43;4.50;;;21.60;99.90;;;;;;5084800;27;45183;-75
2022/05/20 10:57:24;;;;;;;5.20;4.30;;;21.70;99.90;;;;;;5102809;27;46310;-76
2022/05/20 11:00:09;;;;;;;7.18;4.75;;;21.60;99.90;;;;;;5091196;27;45214;-76
2022/05/20 11:03:15;;;;;;;6.30;4.30;;;21.60;99.90;;;;;;5078041;27;45176;-76
2022/05/20 11:05:56;;;;;;;5.95;4.18;;;21.60;99.90;;;;;;5044389;28;45324;-76
2022/05/20 11:08:33;;;;;;;7.20;4.13;;;21.60;99.90;;;;;;5079345;27;45471;-76
2022/05/20 11:11:24;;;;;;;5.20;4.22;;;21.60;99.90;;;;;;5085454;27;45132;-77
2022/05/20 11:14:12;;;;;;;6.30;4.38;;;21.60;99.90;;;;;;5084192;27;45261;-76
2022/05/20 11:17:01;;;;;;;4.80;4.18;;;21.60;99.90;;;;;;5080661;27;45411;-76
2022/05/20 11:19:44;;;;;;;5.30;4.18;;;21.60;99.90;;;;;;5077790;27;46336;-76
2022/05/20 11:22:43;;;;;;;6.13;4.43;;;21.60;99.90;;;;;;5092656;27;45298;-76
2022/05/20 11:25:42;;;;;;;5.20;4.30;;;21.60;99.90;;;;;;5081828;27;45197;-76
2022/05/20 11:28:38;;;;;;;5.10;4.10;;;21.60;99.90;;;;;;5084062;27;45365;-76
2022/05/20 11:31:17;;;;;;;5.30;4.40;;;21.60;99.90;;;;;;5058537;27;45326;-76
2022/05/20 11:34:09;;;;;;;5.63;4.22;;;21.60;99.90;;;;;;5086407;27;45432;-76
2022/05/20 11:36:56;;;;;;;5.07;4.13;;;21.60;99.90;;;;;;5092641;27;45242;-76
2022/05/20 11:39:48;;;;;;;4.78;3.78;;;21.60;99.90;;;;;;5081327;27;46642;-75
2022/05/20 11:42:30;;;;;;;4.97;3.58;;;21.60;99.90;;;;;;5090385;27;45267;-76
2022/05/20 11:45:10;;;;;;;5.43;4.03;;;21.60;99.90;;;;;;5085727;27;45756;-75
2022/05/20 11:48:08;;;;;;;4.82;3.78;;;21.60;99.90;;;;;;5086405;27;45396;-76
2022/05/20 11:51:00;;;;;;;5.05;3.90;;;21.60;99.90;;;;;;5082227;27;45372;-76
2022/05/20 11:53:34;;;;;;;4.75;3.88;;;21.60;99.90;;;;;;5077479;27;46119;-75
2022/05/20 11:56:06;;;;;;;4.45;3.47;;;21.60;99.90;;;;;;5086073;27;45306;-76
2022/05/20 11:58:38;;;;;;;4.40;3.55;;;21.60;99.90;;;;;;5082270;27;45266;-76
2022/05/20 12:01:06;;;;;;;5.18;3.72;;;21.60;99.90;;;;;;5064889;27;45287;-76
2022/05/20 12:06:18;;;;;;;5.97;3.53;;;21.60;99.90;;;;;;5070944;27;45654;-75
2022/05/20 12:08:51;;;;;;;4.30;3.65;;;21.60;99.90;;;;;;5066412;28;45351;-75
2022/05/20 12:11:21;;;;;;;4.05;3.10;;;21.60;99.90;;;;;;5080004;28;45213;-75
2022/05/20 12:14:03;;;;;;;4.05;3.65;;;21.60;99.90;;;;;;5077932;27;46611;-75
2022/05/20 12:16:31;;;;;;;4.30;3.50;;;21.60;99.90;;;;;;5074094;27;45300;-76
2022/05/20 12:24:37;;;;;;;4.93;3.70;;;21.60;99.90;;;;;;5084541;27;45820;-76
2022/05/20 12:27:11;;;;;;;3.78;3.40;;;21.70;99.90;;;;;;5081871;27;46609;-76
2022/05/20 12:30:07;;;;;;;4.03;3.35;;;21.70;99.90;;;;;;5090506;27;45261;-76
2022/05/20 12:32:52;;;;;;;3.95;3.10;;;21.60;99.90;;;;;;5082268;27;45267;-76
2022/05/20 12:35:24;;;;;;;3.53;3.22;;;21.60;99.90;;;;;;5082482;27;45686;-76
2022/05/20 12:38:21;;;;;;;4.10;3.10;;;21.60;99.90;;;;;;5079451;27;46252;-76
2022/05/20 12:41:03;;;;;;;5.90;3.63;;;21.70;99.90;;;;;;5074743;27;45247;-76
2022/05/20 12:44:05;;;;;;;5.25;3.67;;;21.70;99.90;;;;;;5081016;27;45323;-76
2022/05/20 12:46:58;;;;;;;4.35;3.58;;;21.70;99.90;;;;;;5078027;27;45260;-76
2022/05/20 12:49:26;;;;;;;5.28;3.55;;;21.70;99.90;;;;;;5088387;27;45242;-76
2022/05/20 12:52:04;;;;;;;3.88;3.47;;;21.70;99.90;;;;;;5074969;27;45433;-76
2022/05/20 12:54:31;;;;;;;3.70;3.15;;;21.70;99.90;;;;;;5077415;27;45259;-76
2022/05/20 12:57:07;;;;;;;4.28;3.88;;;21.60;99.90;;;;;;5079050;27;47123;-76
2022/05/20 12:59:34;;;;;;;4.72;3.50;;;21.70;99.90;;;;;;5082440;27;45210;-76
2022/05/20 13:02:07;;;;;;;3.70;3.15;;;21.60;99.90;;;;;;5081745;27;45426;-76
2022/05/20 13:04:39;;;;;;;5.03;3.88;;;21.70;99.90;;;;;;5089819;27;45220;-75
2022/05/20 13:07:12;;;;;;;5.38;4.07;;;21.40;99.90;;;;;;5087678;27;46336;-76
2022/05/20 13:09:42;;;;;;;5.35;3.88;;;21.60;99.90;;;;;;5090912;27;45269;-75
2022/05/20 13:12:18;;;;;;;5.30;4.03;;;21.60;99.90;;;;;;5082550;27;45562;-75
2022/05/20 13:14:45;;;;;;;4.65;3.38;;;21.60;99.90;;;;;;5077877;27;45553;-78
2022/05/20 13:17:12;;;;;;;5.63;3.20;;;21.60;99.90;;;;;;5090525;27;45316;-76
2022/05/20 13:19:45;;;;;;;3.67;2.80;;;21.60;99.90;;;;;;5089681;27;45303;-76
2022/05/20 13:22:15;;;;;;;3.22;2.38;;;21.60;99.90;;;;;;5096146;27;45341;-76
2022/05/20 13:24:42;;;;;;;4.10;2.50;;;21.60;99.90;;;;;;5095227;27;45365;-76
2022/05/20 13:27:14;;;;;;;3.70;2.42;;;21.60;99.90;;;;;;5081505;27;47951;-76
2022/05/20 13:29:43;;;;;;;2.58;2.28;;;21.60;99.90;;;;;;5082978;27;45265;-76
2022/05/20 13:32:19;;;;;;;2.58;2.20;;;21.60;99.90;;;;;;5083727;27;45422;-75
2022/05/20 13:34:49;;;;;;;3.17;2.40;;;21.70;99.90;;;;;;5078553;27;46478;-75
2022/05/20 13:37:22;;;;;;;3.60;2.30;;;21.60;99.90;;;;;;5085885;27;47386;-74
2022/05/20 13:39:54;;;;;;;2.53;2.13;;;21.60;99.90;;;;;;5082034;27;45349;-75
2022/05/20 13:42:24;;;;;;;2.28;2.08;;;21.60;99.90;;;;;;5078758;27;45360;-75
2022/05/20 13:44:52;;;;;;;2.75;2.42;;;21.70;99.90;;;;;;5074286;27;45472;-75
2022/05/20 13:50:11;;;;;;;2.33;2.13;;;21.70;99.90;;;;;;5077692;27;45376;-75
2022/05/20 13:52:41;;;;;;;2.55;2.25;;;21.70;99.90;;;;;;5095717;27;45282;-76